Language: 


Des rapports , des résumés tant et plus, au choix de chacun....


Données statistiques de la station
Quotidien Rapport Février 3, 2017 Unités:  Anglais    Métrique   les deux
« Précédent Jour
Suivant Jour »
Quotidien Hebdomadaire Mensuel Annuel Actuel
  Haut: Bas: Moyen:
Température: 53.4 °F 44.8 °F 49.1 °F
Pt de rosée: 49.6 °F 40.5 °F 44.4 °F
Humidité: 97 % 63 % 85 %
Vitesse du vent: 15.2 mph 0 mph 7.1 mph
Rafales: 24.2 mph - -
Vent:- - South
Pression: 29.6 in 29.4 in -
Précipitation: 0 in    
Historical Graphs
 
 
Données statistiques pour Février 3, 2017
Heure Température Point de rosée Pression Vent Vitesse du vent Refales Humidité Pluie (taux horaire)
00:04 51.4 °F 49.5 °F 29.5 in South 4.9 mph 9.8 mph 93 % 0 in
00:09 51.4 °F 49.5 °F 29.5 in SSW 6.3 mph 9.8 mph 93 % 0 in
00:14 51.3 °F 49.3 °F 29.5 in SSW 5.8 mph 8.5 mph 93 % 0 in
00:19 51.3 °F 49.6 °F 29.5 in South 8.5 mph 8.5 mph 94 % 0 in
00:24 51.3 °F 49.6 °F 29.6 in SSW 4.3 mph 8.7 mph 94 % 0 in
00:29 51.3 °F 49.6 °F 29.6 in SSE 6.5 mph 8.7 mph 94 % 0 in
00:34 51.3 °F 49.6 °F 29.6 in South 4 mph 9.8 mph 94 % 0 in
00:39 51.3 °F 49.6 °F 29.5 in South 7.4 mph 9.8 mph 94 % 0 in
00:44 51.3 °F 49.6 °F 29.5 in SSW 6 mph 8.7 mph 94 % 0 in
00:49 51.3 °F 49.6 °F 29.5 in SSW 3.8 mph 8.7 mph 94 % 0 in
00:54 51.3 °F 49.6 °F 29.6 in SW 5.8 mph 8.5 mph 94 % 0 in
00:59 51.3 °F 49.6 °F 29.6 in South 4.9 mph 8.5 mph 94 % 0 in
01:04 51.1 °F 49.5 °F 29.6 in South 6.5 mph 10.1 mph 94 % 0 in
01:09 51.1 °F 49.5 °F 29.6 in SSE 3.8 mph 10.1 mph 94 % 0 in
01:14 51.1 °F 49.5 °F 29.6 in SSW 8.1 mph 12.1 mph 94 % 0 in
01:19 51.1 °F 49.5 °F 29.6 in SSW 6.5 mph 12.8 mph 94 % 0 in
01:24 51.1 °F 49.5 °F 29.6 in SSW 4.3 mph 12.8 mph 94 % 0 in
01:29 50.9 °F 49.3 °F 29.6 in South 4.3 mph 10.3 mph 94 % 0 in
01:34 50.9 °F 49.3 °F 29.6 in SSW 5.4 mph 10.3 mph 94 % 0 in
01:39 50.7 °F 48.9 °F 29.5 in South 0.9 mph 7.2 mph 94 % 0 in
01:44 50.5 °F 48.9 °F 29.5 in South 3.6 mph 7.2 mph 94 % 0 in
01:49 50.5 °F 48.9 °F 29.5 in SSW 6.3 mph 9.4 mph 94 % 0 in
01:54 50.4 °F 48.7 °F 29.5 in SW 3.6 mph 9.4 mph 94 % 0 in
01:59 50.2 °F 48.6 °F 29.5 in SSW 3.4 mph 8.1 mph 94 % 0 in
02:04 50.2 °F 48.6 °F 29.5 in SSW 6 mph 6 mph 94 % 0 in
02:09 49.8 °F 48.2 °F 29.6 in SW 4.7 mph 8.7 mph 94 % 0 in
02:14 49.8 °F 48.2 °F 29.6 in SSW 4 mph 8.7 mph 94 % 0 in
02:19 49.5 °F 47.8 °F 29.6 in SSW 7.8 mph 7.8 mph 94 % 0 in
02:24 49.3 °F 47.7 °F 29.5 in SSW 2.5 mph 7.8 mph 94 % 0 in
02:29 49.3 °F 47.7 °F 29.5 in SSW 4.7 mph 7.6 mph 94 % 0 in
02:34 48.9 °F 47.3 °F 29.5 in SSW 7.4 mph 8.5 mph 94 % 0 in
02:39 48.7 °F 47.1 °F 29.6 in SW 5.4 mph 8.7 mph 94 % 0 in
02:44 48.7 °F 47.1 °F 29.6 in SSW 4.9 mph 8.7 mph 94 % 0 in
02:49 48.7 °F 47.1 °F 29.6 in SSW 5.8 mph 8.5 mph 94 % 0 in
02:54 48.6 °F 46.9 °F 29.5 in SW 7.4 mph 8.7 mph 94 % 0 in
02:59 48.6 °F 46.9 °F 29.5 in SSW 0.9 mph 8.7 mph 94 % 0 in
03:04 48.4 °F 46.8 °F 29.5 in South 3.8 mph 7.4 mph 94 % 0 in
03:09 48 °F 46 °F 29.6 in SSW 3.6 mph 7.8 mph 93 % 0 in
03:14 47.8 °F 45.9 °F 29.6 in Calm   7.8 mph 93 % 0 in
03:19 47.7 °F 46 °F 29.6 in SSW 3.1 mph 4.3 mph 94 % 0 in
03:24 47.5 °F 45.9 °F 29.6 in SSW 3.6 mph 6.5 mph 94 % 0 in
03:29 47.5 °F 45.9 °F 29.6 in SSW 5.8 mph 8.7 mph 94 % 0 in
03:34 47.5 °F 45.9 °F 29.6 in SSW 5.6 mph 8.7 mph 94 % 0 in
03:39 47.5 °F 45.9 °F 29.6 in SSW 6.3 mph 7.8 mph 94 % 0 in
03:44 47.5 °F 45.9 °F 29.6 in SW 5.4 mph 7.8 mph 94 % 0 in
03:49 47.5 °F 46.2 °F 29.6 in South 3.1 mph 7.4 mph 95 % 0 in
03:54 47.5 °F 46.2 °F 29.6 in South 5.4 mph 7.8 mph 95 % 0 in
03:59 47.5 °F 46.2 °F 29.6 in South 5.6 mph 8.1 mph 95 % 0 in
04:04 47.7 °F 46.2 °F 29.6 in SSW 7.2 mph 8.1 mph 95 % 0 in
04:09 47.7 °F 46.2 °F 29.5 in SSW 6.3 mph 8.1 mph 95 % 0 in
04:14 47.7 °F 46.2 °F 29.5 in SW 8.5 mph 8.5 mph 95 % 0 in
04:19 47.7 °F 46.2 °F 29.5 in SSW 5.6 mph 8.5 mph 95 % 0 in
04:24 47.7 °F 46.2 °F 29.6 in SW 5.8 mph 8.7 mph 95 % 0 in
04:29 47.7 °F 46.2 °F 29.6 in South 4.9 mph 8.7 mph 95 % 0 in
04:34 47.5 °F 46.2 °F 29.6 in SW 6 mph 7.8 mph 95 % 0 in
04:39 47.5 °F 46.2 °F 29.6 in SSW 7.4 mph 8.1 mph 95 % 0 in
04:44 47.5 °F 46.2 °F 29.6 in South 6.5 mph 8.1 mph 95 % 0 in
04:49 47.5 °F 46.2 °F 29.6 in SSW 3.6 mph 7.4 mph 95 % 0 in
04:54 47.5 °F 46.2 °F 29.6 in SSW 7.4 mph 7.6 mph 95 % 0 in
04:59 47.5 °F 46.2 °F 29.6 in SSW 6.5 mph 7.8 mph 95 % 0 in
05:04 47.3 °F 46 °F 29.6 in South 7.8 mph 9.8 mph 95 % 0 in
05:09 47.3 °F 46 °F 29.6 in SSW 6 mph 9.8 mph 95 % 0 in
05:14 47.3 °F 46 °F 29.6 in South 5.4 mph 7.4 mph 95 % 0 in
05:19 47.3 °F 46 °F 29.6 in South 4 mph 7.4 mph 95 % 0 in
05:24 47.3 °F 46 °F 29.6 in SSW 4 mph 7.8 mph 95 % 0 in
05:29 47.3 °F 46 °F 29.6 in SSW 3.1 mph 7.8 mph 95 % 0 in
05:34 47.1 °F 45.9 °F 29.6 in SSW 3.4 mph 7.4 mph 95 % 0 in
05:39 47.1 °F 45.9 °F 29.6 in SW 5.8 mph 8.1 mph 95 % 0 in
05:44 47.1 °F 45.9 °F 29.6 in South 4.3 mph 8.7 mph 95 % 0 in
05:49 47.1 °F 45.9 °F 29.6 in SSW 4.3 mph 8.7 mph 95 % 0 in
05:54 47.1 °F 45.9 °F 29.6 in SSW 6 mph 10.3 mph 95 % 0 in
05:59 47.1 °F 45.9 °F 29.6 in South 6 mph 10.3 mph 95 % 0 in
06:04 47.1 °F 45.9 °F 29.6 in SW 4.9 mph 8.5 mph 95 % 0 in
06:09 47.1 °F 45.9 °F 29.6 in SW 7.4 mph 8.5 mph 95 % 0 in
06:14 47.1 °F 45.9 °F 29.6 in South 7.2 mph 8.1 mph 95 % 0 in
06:19 47.1 °F 45.9 °F 29.6 in SW 4.3 mph 9.2 mph 95 % 0 in
06:24 46.9 °F 45.7 °F 29.6 in SSW 4 mph 9.2 mph 95 % 0 in
06:29 46.9 °F 45.7 °F 29.6 in South 7.2 mph 8.7 mph 95 % 0 in
06:34 46.9 °F 45.7 °F 29.6 in SW 6 mph 8.7 mph 95 % 0 in
06:39 46.8 °F 45.5 °F 29.6 in SSW 5.6 mph 8.5 mph 95 % 0 in
06:44 46.8 °F 45.5 °F 29.6 in SSW 5.6 mph 6.5 mph 95 % 0 in
06:49 46.6 °F 45.1 °F 29.6 in South 6 mph 6 mph 95 % 0 in
06:54 46.6 °F 45.1 °F 29.6 in SSW 3.1 mph 7.4 mph 95 % 0 in
06:59 46.6 °F 45.1 °F 29.6 in SSW 4 mph 7.4 mph 95 % 0 in
07:04 46.2 °F 45 °F 29.6 in SSW 3.1 mph 7.4 mph 95 % 0 in
07:09 46.2 °F 45 °F 29.6 in SW 3.8 mph 7.4 mph 95 % 0 in
07:14 46 °F 44.8 °F 29.6 in SSW 2.7 mph 5.4 mph 95 % 0 in
07:19 46 °F 44.8 °F 29.6 in SSW 4 mph 5.6 mph 95 % 0 in
07:24 46 °F 44.8 °F 29.6 in SSW 6.5 mph 6.5 mph 95 % 0 in
07:29 46 °F 45 °F 29.6 in SSW 3.4 mph 7.2 mph 96 % 0 in
07:34 46 °F 45 °F 29.6 in South 6.3 mph 7.8 mph 96 % 0 in
07:39 46 °F 45 °F 29.6 in South 6 mph 8.1 mph 96 % 0 in
07:44 46 °F 45 °F 29.6 in SSW 7.8 mph 8.1 mph 96 % 0 in
07:49 45.9 °F 45 °F 29.6 in SSW 5.4 mph 8.1 mph 96 % 0 in
07:54 45.9 °F 45 °F 29.5 in SSW 6.5 mph 8.1 mph 96 % 0 in
07:59 45.9 °F 44.8 °F 29.5 in SSW 4.9 mph 6.9 mph 96 % 0 in
08:04 45.9 °F 44.8 °F 29.5 in South 5.6 mph 6.7 mph 96 % 0 in
08:09 45.9 °F 44.8 °F 29.6 in South 5.8 mph 7.4 mph 96 % 0 in
08:14 45.7 °F 44.4 °F 29.6 in South 3.8 mph 7.6 mph 96 % 0 in
08:19 45.7 °F 44.4 °F 29.6 in SSW 4.9 mph 7.6 mph 96 % 0 in
08:24 45.7 °F 44.4 °F 29.6 in SSW 6 mph 8.9 mph 96 % 0 in
08:29 45.3 °F 44.2 °F 29.6 in SSW 6 mph 8.9 mph 96 % 0 in
08:34 45.3 °F 44.2 °F 29.6 in South 5.8 mph 8.5 mph 96 % 0 in
08:39 45.3 °F 44.6 °F 29.6 in SSW 4.3 mph 7.6 mph 97 % 0 in
08:44 45.1 °F 44.4 °F 29.6 in South 6.3 mph 7.4 mph 97 % 0 in
08:49 45.3 °F 44.6 °F 29.6 in SSW 5.6 mph 7.8 mph 97 % 0 in
08:54 45.7 °F 44.8 °F 29.6 in SSW 4.3 mph 7.8 mph 97 % 0 in
08:59 45.7 °F 44.8 °F 29.6 in SSW 4.9 mph 10.1 mph 97 % 0 in
09:04 45.9 °F 45 °F 29.6 in South 6 mph 10.1 mph 97 % 0 in
09:09 45.9 °F 45.1 °F 29.6 in South 4 mph 10.1 mph 97 % 0 in
09:14 46 °F 45.3 °F 29.6 in SSW 6 mph 8.5 mph 97 % 0 in
09:19 46.2 °F 45.5 °F 29.6 in South 5.4 mph 8.1 mph 97 % 0 in
09:24 46.6 °F 45.3 °F 29.6 in South 5.4 mph 8.1 mph 96 % 0 in
09:29 46.8 °F 46 °F 29.6 in South 5.6 mph 7.8 mph 97 % 0 in
09:34 47.1 °F 46.4 °F 29.6 in South 9.8 mph 9.8 mph 97 % 0 in
09:39 47.5 °F 46.4 °F 29.6 in SSW 6.3 mph 9.8 mph 96 % 0 in
09:44 47.8 °F 46.8 °F 29.6 in South 3.6 mph 9.6 mph 96 % 0 in
09:49 48 °F 46.9 °F 29.6 in SSW 7.6 mph 8.1 mph 96 % 0 in
09:54 48.2 °F 47.1 °F 29.6 in SSW 4.9 mph 8.1 mph 96 % 0 in
09:59 48.4 °F 46.9 °F 29.6 in SSW 2.9 mph 10.3 mph 95 % 0 in
10:04 48.6 °F 47.1 °F 29.6 in South 6.5 mph 10.3 mph 95 % 0 in
10:09 48.7 °F 47.1 °F 29.6 in SSW 3.4 mph 10.7 mph 94 % 0 in
10:14 48.9 °F 46.9 °F 29.6 in SSW 8.5 mph 10.7 mph 93 % 0 in
10:19 48.9 °F 46.8 °F 29.6 in SSW 10.7 mph 11 mph 92 % 0 in
10:24 49.1 °F 46.6 °F 29.6 in SSE 5.4 mph 11.4 mph 91 % 0 in
10:29 49.5 °F 46.8 °F 29.6 in SSW 7.8 mph 12.8 mph 90 % 0 in
10:34 49.6 °F 46.6 °F 29.6 in SSW 4.9 mph 12.8 mph 89 % 0 in
10:39 49.8 °F 46.4 °F 29.6 in SSW 6.3 mph 14.5 mph 88 % 0 in
10:44 50 °F 46 °F 29.6 in SSW 10.7 mph 14.5 mph 86 % 0 in
10:49 50 °F 45.7 °F 29.6 in SSW 11.4 mph 12.5 mph 85 % 0 in
10:54 50.4 °F 45.7 °F 29.6 in SW 9.8 mph 15.2 mph 84 % 0 in
10:59 50.5 °F 45.9 °F 29.6 in SSW 7.6 mph 15.2 mph 84 % 0 in
11:04 50.7 °F 45.7 °F 29.6 in SSW 6.3 mph 13.2 mph 83 % 0 in
11:09 50.9 °F 45.9 °F 29.6 in SSW 6.3 mph 13.2 mph 83 % 0 in
11:14 51.1 °F 45.7 °F 29.6 in SSW 12.1 mph 14.5 mph 82 % 0 in
11:19 51.1 °F 45.7 °F 29.6 in SSW 6 mph 14.5 mph 82 % 0 in
11:24 51.3 °F 45.9 °F 29.6 in SW 13 mph 14.8 mph 82 % 0 in
11:29 51.3 °F 45.7 °F 29.6 in WSW 7.4 mph 14.8 mph 81 % 0 in
11:34 51.6 °F 45.9 °F 29.6 in South 6.5 mph 14.8 mph 81 % 0 in
11:39 51.1 °F 45.1 °F 29.6 in South 11.4 mph 15.9 mph 80 % 0 in
11:44 51.3 °F 45.3 °F 29.6 in SSW 4 mph 15.9 mph 80 % 0 in
11:49 51.3 °F 44.2 °F 29.6 in South 7.2 mph 17.4 mph 77 % 0 in
11:54 51.4 °F 44.8 °F 29.6 in South 7.4 mph 17.4 mph 78 % 0 in
11:59 51.8 °F 44.8 °F 29.6 in SSW 10.1 mph 15.4 mph 77 % 0 in
12:04 52 °F 45 °F 29.6 in SSW 7.8 mph 12.5 mph 77 % 0 in
12:09 52.3 °F 45.3 °F 29.6 in WSW 14.3 mph 14.3 mph 77 % 0 in
12:14 52.2 °F 44.8 °F 29.6 in SSW 12.5 mph 14.3 mph 76 % 0 in
12:19 52.3 °F 44.6 °F 29.6 in SSW 9.6 mph 20.8 mph 75 % 0 in
12:24 52.5 °F 44.4 °F 29.6 in SSW 7.4 mph 20.8 mph 74 % 0 in
12:29 51.8 °F 44.1 °F 29.6 in South 4.9 mph 13.9 mph 75 % 0 in
12:34 51.4 °F 43.7 °F 29.6 in SSW 8.7 mph 12.3 mph 75 % 0 in
12:39 52 °F 43.9 °F 29.6 in SSW 12.1 mph 16.6 mph 74 % 0 in
12:44 52.2 °F 43.7 °F 29.6 in SSW 7.8 mph 17.2 mph 73 % 0 in
12:49 52.5 °F 44.1 °F 29.6 in SW 10.7 mph 17.2 mph 73 % 0 in
12:54 52.5 °F 44.1 °F 29.6 in South 12.3 mph 19 mph 73 % 0 in
12:59 52 °F 42.8 °F 29.6 in SSW 11.9 mph 19 mph 71 % 0 in
13:04 52.3 °F 43.2 °F 29.6 in South 13.2 mph 17.4 mph 71 % 0 in
13:09 52.5 °F 43.7 °F 29.5 in SSW 12.5 mph 16.8 mph 72 % 0 in
13:14 52.5 °F 43.7 °F 29.5 in SSW 7.6 mph 15.4 mph 72 % 0 in
13:19 52.3 °F 43.2 °F 29.5 in South 12.5 mph 17.4 mph 71 % 0 in
13:24 52.2 °F 43 °F 29.6 in South 8.9 mph 17.4 mph 71 % 0 in
13:29 52.3 °F 43.5 °F 29.6 in South 9.8 mph 17 mph 72 % 0 in
13:34 52.2 °F 42.6 °F 29.6 in SSW 10.5 mph 17 mph 70 % 0 in
13:39 52.2 °F 43 °F 29.6 in SSE 12.8 mph 20.6 mph 71 % 0 in
13:44 52.3 °F 43.2 °F 29.6 in SSE 13.9 mph 20.6 mph 71 % 0 in
13:49 52.5 °F 43.9 °F 29.6 in SSE 13.6 mph 15.4 mph 72 % 0 in
13:54 53.1 °F 44.2 °F 29.5 in South 5.8 mph 16.1 mph 72 % 0 in
13:59 52.9 °F 43.7 °F 29.5 in SSE 8.5 mph 17 mph 71 % 0 in
14:04 52.5 °F 43.2 °F 29.5 in South 10.5 mph 17 mph 70 % 0 in
14:09 52.9 °F 43.7 °F 29.5 in South 6.5 mph 14.8 mph 71 % 0 in
14:14 53.2 °F 44.2 °F 29.5 in SSE 9.8 mph 14.8 mph 71 % 0 in
14:19 53.2 °F 43.9 °F 29.5 in South 7.6 mph 13.9 mph 70 % 0 in
14:24 53.2 °F 43.3 °F 29.5 in South 11 mph 17.4 mph 69 % 0 in
14:29 53.2 °F 43.3 °F 29.5 in WSW 10.7 mph 17.4 mph 69 % 0 in
14:34 53.2 °F 42.6 °F 29.5 in SSE 8.1 mph 14.8 mph 67 % 0 in
14:39 53.4 °F 43.2 °F 29.5 in South 6.3 mph 16.6 mph 68 % 0 in
14:49 53.4 °F 42.1 °F 29.5 in SSE 10.7 mph 14.8 mph 65 % 0 in
14:54 53.4 °F 42.1 °F 29.5 in SSE 7.8 mph 17.9 mph 65 % 0 in
14:59 53.2 °F 41.5 °F 29.5 in South 5.8 mph 17.9 mph 64 % 0 in
15:04 53.1 °F 41.2 °F 29.5 in South 8.9 mph 17.2 mph 64 % 0 in
15:09 53.2 °F 41.4 °F 29.5 in SSE 5.6 mph 17.2 mph 64 % 0 in
15:14 53.2 °F 41.4 °F 29.5 in SSE 8.7 mph 15.4 mph 64 % 0 in
15:19 53.4 °F 42.1 °F 29.5 in SE 7.4 mph 15.4 mph 65 % 0 in
15:24 53.2 °F 41.5 °F 29.5 in SE 10.7 mph 15.4 mph 64 % 0 in
15:29 53.1 °F 41.2 °F 29.5 in SSE 10.3 mph 15.4 mph 64 % 0 in
15:34 53.2 °F 40.8 °F 29.5 in SSE 10.1 mph 17.4 mph 63 % 0 in
15:39 53.2 °F 41.4 °F 29.5 in SSE 10.5 mph 17.4 mph 64 % 0 in
15:40 53.2 °F 41.4 °F 29.5 in SSE 8.1 mph 17.4 mph 64 % 0 in
15:45 53.1 °F 41.5 °F 29.5 in SSE 5.8 mph 17.4 mph 65 % 0 in
15:50 53.1 °F 41.2 °F 29.5 in SSE 8.7 mph 17.4 mph 64 % 0 in
15:55 53.1 °F 41.5 °F 29.5 in South 8.7 mph 14.5 mph 65 % 0 in
16:00 53.1 °F 41.5 °F 29.5 in SE 6.3 mph 14.5 mph 65 % 0 in
16:05 52.5 °F 40.5 °F 29.5 in South 10.1 mph 13.6 mph 63 % 0 in
16:10 52.5 °F 40.5 °F 29.5 in South 6.3 mph 17.4 mph 63 % 0 in
16:15 52.5 °F 40.6 °F 29.5 in South 7.8 mph 17.4 mph 64 % 0 in
16:20 52.3 °F 40.8 °F 29.5 in SSE 7.2 mph 13.9 mph 65 % 0 in
16:25 52 °F 40.5 °F 29.5 in SE 5.8 mph 13 mph 65 % 0 in
16:30 51.6 °F 40.6 °F 29.5 in SSE 6.3 mph 13 mph 66 % 0 in
16:35 51.1 °F 40.5 °F 29.5 in South 7.8 mph 15.7 mph 67 % 0 in
16:40 50.9 °F 40.6 °F 29.4 in SE 8.7 mph 15.7 mph 68 % 0 in
16:45 50.7 °F 40.5 °F 29.4 in SE 15.2 mph 15.7 mph 68 % 0 in
16:50 50.5 °F 40.6 °F 29.4 in SE 9.4 mph 15.2 mph 69 % 0 in
16:55 50.4 °F 40.6 °F 29.4 in SE 5.6 mph 14.3 mph 69 % 0 in
17:00 50.4 °F 40.6 °F 29.4 in SSE 10.5 mph 13.4 mph 69 % 0 in
17:05 50.2 °F 40.8 °F 29.4 in SE 6 mph 15.4 mph 70 % 0 in
17:10 50.2 °F 40.8 °F 29.4 in SSE 7.4 mph 17.7 mph 70 % 0 in
17:15 50.2 °F 41.2 °F 29.4 in SSE 12.8 mph 17.7 mph 71 % 0 in
17:20 50.2 °F 41.2 °F 29.4 in SE 11 mph 17.4 mph 71 % 0 in
17:25 50.2 °F 41.2 °F 29.4 in SE 11 mph 16.8 mph 71 % 0 in
17:30 50 °F 41 °F 29.4 in SE 10.7 mph 14.5 mph 71 % 0 in
17:35 50 °F 41 °F 29.4 in SSE 11 mph 17.2 mph 71 % 0 in
17:40 50 °F 41.4 °F 29.4 in SSE 9.8 mph 17.2 mph 72 % 0 in
17:45 50 °F 41.4 °F 29.4 in SE 12.3 mph 16.3 mph 72 % 0 in
17:50 50 °F 41.4 °F 29.4 in SSE 14.8 mph 24.2 mph 72 % 0 in
17:55 50 °F 41.4 °F 29.4 in SSE 9.6 mph 24.2 mph 72 % 0 in
18:00 50 °F 41.4 °F 29.4 in SSE 14.8 mph 17.4 mph 72 % 0 in
18:05 49.8 °F 41.2 °F 29.4 in SSE 8.5 mph 19.9 mph 72 % 0 in
18:10 49.8 °F 41.5 °F 29.4 in SSE 7.4 mph 19.9 mph 73 % 0 in
18:15 49.8 °F 41.5 °F 29.4 in SSE 11 mph 19.5 mph 73 % 0 in
18:20 49.6 °F 41.4 °F 29.4 in SE 10.7 mph 15.4 mph 73 % 0 in
18:25 49.8 °F 41.5 °F 29.4 in SSE 11.9 mph 16.3 mph 73 % 0 in
18:30 49.8 °F 41.5 °F 29.4 in South 7.4 mph 17 mph 73 % 0 in
18:40 49.8 °F 41.9 °F 29.4 in SSE 10.7 mph 21.5 mph 74 % 0 in
18:45 49.8 °F 41.5 °F 29.4 in South 10.7 mph 22.1 mph 73 % 0 in
18:50 49.8 °F 41.9 °F 29.4 in South 10.5 mph 22.1 mph 74 % 0 in
18:55 49.6 °F 41.7 °F 29.4 in South 11.2 mph 20.4 mph 74 % 0 in
19:00 49.5 °F 41.9 °F 29.4 in SSW 7.4 mph 13.9 mph 75 % 0 in
19:05 49.1 °F 41.9 °F 29.4 in South 6.3 mph 13.6 mph 76 % 0 in
19:10 48.7 °F 41.9 °F 29.4 in South 7.8 mph 13.6 mph 77 % 0 in
19:15 48.6 °F 42.1 °F 29.4 in SSW 12.1 mph 13.2 mph 78 % 0 in
19:20 48.4 °F 41.9 °F 29.4 in South 10.5 mph 13 mph 78 % 0 in
19:25 48.4 °F 41.9 °F 29.4 in SSW 10.5 mph 15.7 mph 78 % 0 in
19:30 48.4 °F 42.3 °F 29.4 in SSE 8.7 mph 15.7 mph 79 % 0 in
19:35 48.2 °F 42.1 °F 29.4 in South 6.3 mph 14.5 mph 79 % 0 in
19:40 48.2 °F 42.1 °F 29.4 in South 8.5 mph 12.5 mph 79 % 0 in
19:45 48.2 °F 42.1 °F 29.4 in SSE 7.2 mph 13.2 mph 79 % 0 in
19:50 48.2 °F 42.1 °F 29.4 in South 5.8 mph 13.4 mph 79 % 0 in
19:55 48.2 °F 42.1 °F 29.4 in South 8.5 mph 13.4 mph 79 % 0 in
20:00 48.2 °F 41.7 °F 29.4 in South 12.5 mph 12.5 mph 78 % 0 in
20:05 48.2 °F 41.7 °F 29.4 in SSE 10.1 mph 13 mph 78 % 0 in
20:10 48.4 °F 41.9 °F 29.4 in South 8.1 mph 13 mph 78 % 0 in
20:15 48.4 °F 41.9 °F 29.4 in SSE 5.8 mph 13 mph 78 % 0 in
20:20 48.4 °F 41.9 °F 29.4 in SSE 11 mph 13.2 mph 78 % 0 in
20:26 48.4 °F 41.5 °F 29.4 in South 9.4 mph 15.4 mph 77 % 0 in
20:31 48.4 °F 41.5 °F 29.4 in South 12.5 mph 15.4 mph 77 % 0 in
20:36 48.2 °F 41.4 °F 29.4 in South 8.7 mph 14.8 mph 77 % 0 in
20:41 48.2 °F 41.7 °F 29.4 in South 7.8 mph 14.5 mph 78 % 0 in
20:46 48 °F 41.5 °F 29.4 in SE 6 mph 12.8 mph 78 % 0 in
20:51 47.8 °F 41.4 °F 29.4 in South 12.5 mph 13 mph 78 % 0 in
20:56 47.8 °F 41.7 °F 29.4 in South 5.8 mph 13 mph 79 % 0 in
21:01 47.8 °F 42.1 °F 29.4 in SSW 8.7 mph 13 mph 80 % 0 in
21:06 47.8 °F 42.1 °F 29.4 in South 10.1 mph 10.1 mph 80 % 0 in
21:11 47.8 °F 42.1 °F 29.4 in SSE 6.3 mph 12.8 mph 80 % 0 in
21:16 47.8 °F 41.7 °F 29.4 in South 5.6 mph 15.4 mph 79 % 0 in
21:21 47.8 °F 42.1 °F 29.4 in South 6.3 mph 15.4 mph 80 % 0 in
21:26 47.7 °F 41.7 °F 29.4 in SSE 6.3 mph 10.1 mph 80 % 0 in
21:31 47.7 °F 41.7 °F 29.4 in South 3.8 mph 10.1 mph 80 % 0 in
21:36 47.7 °F 41.7 °F 29.4 in South 5.8 mph 10.7 mph 80 % 0 in
21:41 47.7 °F 42.3 °F 29.4 in South 8.5 mph 13 mph 81 % 0 in
21:46 47.5 °F 42.1 °F 29.4 in South 5.4 mph 13 mph 81 % 0 in
21:51 47.3 °F 42.1 °F 29.4 in SSW 8.7 mph 10.3 mph 82 % 0 in
21:56 47.1 °F 42.3 °F 29.4 in South 6 mph 10.5 mph 83 % 0 in
22:01 46.9 °F 42.4 °F 29.4 in South 5.8 mph 10.5 mph 84 % 0 in
22:06 46.8 °F 42.4 °F 29.4 in South 6.5 mph 10.5 mph 85 % 0 in
22:11 46.6 °F 42.6 °F 29.4 in SSW 7.6 mph 9.6 mph 86 % 0 in
22:16 46.6 °F 43.2 °F 29.4 in SSW 6.9 mph 9.8 mph 88 % 0 in
22:21 46.2 °F 43.2 °F 29.4 in South 6 mph 9.8 mph 89 % 0 in
22:26 46 °F 43.5 °F 29.4 in SSW 7.6 mph 13 mph 91 % 0 in
22:31 45.9 °F 43.7 °F 29.4 in SSW 5.6 mph 13 mph 92 % 0 in
22:36 45.9 °F 43.7 °F 29.4 in SW 4.3 mph 10.7 mph 92 % 0 in
22:41 45.9 °F 43.5 °F 29.4 in SSW 7.6 mph 7.8 mph 92 % 0 in
22:46 45.7 °F 43.3 °F 29.4 in SW 7.6 mph 7.8 mph 92 % 0 in
22:51 45.3 °F 43.5 °F 29.4 in SSW 4.9 mph 7.6 mph 93 % 0 in
22:56 45.1 °F 43.3 °F 29.4 in SSW 8.1 mph 8.1 mph 93 % 0 in
23:01 45.1 °F 43.5 °F 29.4 in SW 5.8 mph 8.1 mph 94 % 0 in
23:06 45.1 °F 43.5 °F 29.4 in WSW 6.5 mph 8.7 mph 94 % 0 in
23:11 45.1 °F 43.5 °F 29.4 in SSW 6.3 mph 8.7 mph 94 % 0 in
23:16 45.3 °F 44.1 °F 29.4 in WSW 5.8 mph 8.5 mph 95 % 0 in
23:21 45.1 °F 43.9 °F 29.4 in SW 4.5 mph 8.5 mph 95 % 0 in
23:26 45.1 °F 43.9 °F 29.4 in WSW 5.8 mph 7.8 mph 95 % 0 in
23:31 45.1 °F 43.9 °F 29.4 in WSW 6.3 mph 7.6 mph 95 % 0 in
23:36 45.1 °F 43.7 °F 29.4 in WSW 4.9 mph 7.8 mph 95 % 0 in
23:41 45.1 °F 43.7 °F 29.4 in SSW 6 mph 9.2 mph 95 % 0 in
23:46 45 °F 43.5 °F 29.4 in WSW 6.5 mph 11 mph 95 % 0 in
23:51 45 °F 43.5 °F 29.4 in WSW 8.1 mph 11 mph 95 % 0 in
23:56 44.8 °F 43.3 °F 29.4 in WSW 7.8 mph 10.5 mph 95 % 0 in
Le Gheer Warneton
Courtoisie de Weather Underground - 2.25 mb

Mise a jour : 17-12-17 03:21:12
Généré par Cumulus 1.9.4 (1099)